Time;durP1;ratioP1;P1;durP2;ratioP2;P2;SDS_P1;SDS_P2;PMS_P1;PMS_P2;Temp;Humidity;BMP_temperature;BMP_pressure;BME280_temperature;BME280_humidity;BME280_pressure;Samples;Min_cycle;Max_cycle;Signal;HPM_P1;HPM_P2
2022/07/12 00:01:30;;;;;;;18.85;15.65;;;15.50;99.90;;;;;;5037664;28;20093;-68
2022/07/12 00:03:56;;;;;;;23.27;20.27;;;15.50;99.90;;;;;;5056361;28;20052;-69
2022/07/12 00:06:21;;;;;;;25.45;21.48;;;15.50;99.90;;;;;;5057575;28;20428;-68
2022/07/12 00:08:47;;;;;;;25.05;20.45;;;15.50;99.90;;;;;;5059718;28;20063;-67
2022/07/12 00:11:13;;;;;;;23.83;19.70;;;15.50;99.90;;;;;;5059037;28;20048;-67
2022/07/12 00:13:39;;;;;;;24.42;20.50;;;15.40;99.90;;;;;;5060194;28;20456;-67
2022/07/12 00:16:04;;;;;;;29.60;22.73;;;15.40;99.90;;;;;;5055417;28;20044;-69
2022/07/12 00:18:30;;;;;;;29.42;23.30;;;15.50;99.90;;;;;;5058347;28;20904;-68
2022/07/12 00:20:56;;;;;;;29.58;22.88;;;15.50;99.90;;;;;;5061387;28;20380;-69
2022/07/12 00:23:22;;;;;;;25.30;21.25;;;15.50;99.90;;;;;;5056328;28;20048;-67
2022/07/12 00:25:47;;;;;;;29.52;23.77;;;15.40;99.90;;;;;;5054673;28;20084;-68
2022/07/12 00:28:13;;;;;;;24.77;20.88;;;15.50;99.90;;;;;;5061659;28;20036;-68
2022/07/12 00:30:39;;;;;;;24.73;20.80;;;15.40;99.90;;;;;;5060074;28;20576;-67
2022/07/12 00:33:04;;;;;;;23.80;20.23;;;15.40;99.90;;;;;;5039507;28;20721;-67
2022/07/12 00:35:30;;;;;;;25.27;21.58;;;15.40;99.90;;;;;;5068945;28;20127;-67
2022/07/12 00:37:56;;;;;;;24.38;20.80;;;15.30;99.90;;;;;;5070876;28;20060;-68
2022/07/12 00:40:21;;;;;;;23.60;21.05;;;15.30;99.90;;;;;;5070624;28;20040;-68
2022/07/12 00:42:48;;;;;;;19.98;17.95;;;15.40;99.90;;;;;;5068164;28;20755;-68
2022/07/12 00:45:13;;;;;;;22.50;20.17;;;15.40;99.90;;;;;;5053785;28;20127;-69
2022/07/12 00:47:45;;;;;;;17.92;16.05;;;15.40;99.90;;;;;;5059746;28;20131;-67
2022/07/12 00:50:12;;;;;;;17.67;15.95;;;15.40;99.90;;;;;;5062728;28;20075;-69
2022/07/12 00:52:38;;;;;;;16.05;14.40;;;15.40;99.90;;;;;;5059430;28;20525;-68
2022/07/12 00:55:08;;;;;;;17.63;15.82;;;15.40;99.90;;;;;;5069666;28;20043;-67
2022/07/12 00:57:39;;;;;;;15.48;13.88;;;15.30;99.90;;;;;;5064439;28;20048;-67
2022/07/12 01:00:08;;;;;;;15.68;14.05;;;15.40;99.90;;;;;;5064907;28;20063;-68
2022/07/12 01:02:35;;;;;;;17.17;15.43;;;15.30;99.90;;;;;;5067117;28;20048;-70
2022/07/12 01:05:03;;;;;;;16.58;14.10;;;15.30;99.90;;;;;;5069161;28;20511;-68
2022/07/12 01:07:29;;;;;;;16.50;14.80;;;15.20;99.90;;;;;;5056740;28;20044;-68
2022/07/12 01:09:55;;;;;;;16.77;14.57;;;15.20;99.90;;;;;;5064756;28;20870;-67
2022/07/12 01:12:23;;;;;;;18.35;15.57;;;15.20;99.90;;;;;;5064082;28;20449;-68
2022/07/12 01:14:50;;;;;;;17.10;15.27;;;15.30;99.90;;;;;;5087013;28;20279;-70
2022/07/12 01:17:20;;;;;;;19.40;17.23;;;15.30;99.90;;;;;;5051038;28;20033;-68
2022/07/12 01:19:47;;;;;;;17.17;14.88;;;15.20;99.90;;;;;;5051629;28;20651;-67
2022/07/12 01:22:16;;;;;;;21.58;16.55;;;15.20;99.90;;;;;;5060033;28;20048;-67
2022/07/12 01:24:42;;;;;;;16.15;14.45;;;15.20;99.90;;;;;;5070459;28;20040;-68
2022/07/12 01:27:08;;;;;;;17.27;15.02;;;15.20;99.90;;;;;;5066402;28;20132;-68
2022/07/12 01:29:35;;;;;;;18.90;16.52;;;15.30;99.90;;;;;;5060754;28;20039;-68
2022/07/12 01:32:24;;;;;;;22.95;17.45;;;15.20;99.90;;;;;;5054355;28;20128;-68
2022/07/12 01:34:50;;;;;;;20.42;17.30;;;15.20;99.90;;;;;;5054814;28;20048;-68
2022/07/12 01:37:17;;;;;;;21.67;17.58;;;15.20;99.90;;;;;;5053279;28;20052;-68
2022/07/12 01:39:44;;;;;;;23.08;17.58;;;15.20;99.90;;;;;;5052121;28;20055;-69
2022/07/12 01:42:10;;;;;;;22.65;17.85;;;15.20;99.90;;;;;;5058419;28;20880;-68
2022/07/12 01:44:36;;;;;;;26.38;20.20;;;15.20;99.90;;;;;;5052926;28;20044;-69
2022/07/12 01:47:02;;;;;;;25.70;20.30;;;15.20;99.90;;;;;;5055024;28;20517;-68
2022/07/12 01:49:28;;;;;;;29.20;20.75;;;15.20;99.90;;;;;;5068546;28;20109;-69
2022/07/12 01:51:58;;;;;;;26.13;20.70;;;15.20;99.90;;;;;;5058012;28;20302;-69
2022/07/12 01:54:25;;;;;;;33.72;23.70;;;15.10;99.90;;;;;;5064104;28;20036;-68
2022/07/12 01:56:52;;;;;;;32.30;21.90;;;15.10;99.90;;;;;;5054881;28;20080;-68
2022/07/12 01:59:19;;;;;;;31.20;22.73;;;15.20;99.90;;;;;;5060512;28;20036;-68
2022/07/12 02:01:45;;;;;;;29.67;22.73;;;15.10;99.90;;;;;;5064341;28;20048;-68
2022/07/12 02:04:12;;;;;;;29.13;22.08;;;15.20;99.90;;;;;;5044189;28;20044;-68
2022/07/12 02:06:38;;;;;;;31.05;22.75;;;15.20;99.90;;;;;;5071956;28;20051;-67
2022/07/12 02:09:04;;;;;;;28.95;22.90;;;15.20;99.90;;;;;;5072929;28;20052;-67
2022/07/12 02:11:31;;;;;;;30.58;24.52;;;15.10;99.90;;;;;;5072786;28;20052;-69
2022/07/12 02:13:57;;;;;;;27.15;22.30;;;15.00;99.90;;;;;;5058993;28;20455;-66
2022/07/12 02:16:22;;;;;;;30.80;25.02;;;15.00;99.90;;;;;;5035918;28;20682;-67
2022/07/12 02:18:48;;;;;;;33.05;25.88;;;15.00;99.90;;;;;;5059460;28;20056;-67
2022/07/12 02:21:14;;;;;;;30.63;23.92;;;15.00;99.90;;;;;;5073068;28;20468;-68
2022/07/12 02:23:40;;;;;;;34.13;25.00;;;15.00;99.90;;;;;;5064629;28;20048;-68
2022/07/12 02:26:05;;;;;;;34.58;26.40;;;14.90;99.90;;;;;;5068422;28;20056;-68
2022/07/12 02:28:31;;;;;;;35.13;27.27;;;15.00;99.90;;;;;;5060840;28;20086;-68
2022/07/12 02:30:57;;;;;;;34.60;25.85;;;14.90;99.90;;;;;;5053152;28;20335;-67
2022/07/12 02:33:23;;;;;;;34.83;25.98;;;14.90;99.90;;;;;;5073237;28;20040;-67
2022/07/12 02:35:49;;;;;;;36.45;28.35;;;14.80;99.90;;;;;;5071549;28;20097;-68
2022/07/12 02:38:14;;;;;;;35.63;27.08;;;14.80;99.90;;;;;;5070564;28;20044;-68
2022/07/12 02:40:55;;;;;;;36.30;28.38;;;14.80;99.90;;;;;;5058750;28;20075;-67
2022/07/12 02:43:25;;;;;;;36.55;28.05;;;14.70;99.90;;;;;;5055591;28;20044;-68
2022/07/12 02:45:52;;;;;;;38.30;28.35;;;14.70;99.90;;;;;;5067820;28;20052;-67
2022/07/12 02:48:18;;;;;;;43.78;32.58;;;14.80;99.90;;;;;;5067218;28;20364;-68
2022/07/12 02:50:45;;;;;;;45.15;33.50;;;14.80;99.90;;;;;;5056171;28;20053;-68
2022/07/12 02:53:11;;;;;;;42.67;31.17;;;14.70;99.90;;;;;;5059812;28;20064;-67
2022/07/12 02:55:38;;;;;;;40.17;29.60;;;14.70;99.90;;;;;;5051942;28;20469;-68
2022/07/12 02:58:05;;;;;;;41.92;30.83;;;14.70;99.90;;;;;;5060372;28;20040;-68
2022/07/12 03:00:32;;;;;;;39.03;28.67;;;14.70;99.90;;;;;;5058772;28;20063;-68
2022/07/12 03:02:58;;;;;;;32.40;25.33;;;14.70;99.90;;;;;;5049500;28;20072;-67
2022/07/12 03:05:24;;;;;;;31.80;24.10;;;14.70;99.90;;;;;;5053180;28;20136;-68
2022/07/12 03:07:50;;;;;;;31.00;23.75;;;14.70;99.90;;;;;;5058032;28;20904;-67
2022/07/12 03:10:16;;;;;;;30.15;22.90;;;14.80;99.90;;;;;;5057212;28;20036;-67
2022/07/12 03:12:42;;;;;;;33.00;25.92;;;14.70;99.90;;;;;;5056944;28;20576;-68
2022/07/12 03:15:08;;;;;;;35.00;26.35;;;14.70;99.90;;;;;;5056714;28;20579;-67
2022/07/12 03:17:34;;;;;;;34.08;24.70;;;14.70;99.90;;;;;;5055569;28;20056;-66
2022/07/12 03:20:00;;;;;;;35.95;26.48;;;14.70;99.90;;;;;;5051413;28;20044;-67
2022/07/12 03:22:25;;;;;;;32.30;24.77;;;14.70;99.90;;;;;;5049765;28;20980;-67
2022/07/12 03:24:51;;;;;;;32.60;23.77;;;14.70;99.90;;;;;;5064350;28;20166;-68
2022/07/12 03:27:17;;;;;;;28.17;21.92;;;14.70;99.90;;;;;;5065874;28;20078;-68
2022/07/12 03:29:43;;;;;;;29.02;22.38;;;14.60;99.90;;;;;;5056760;28;20052;-69
2022/07/12 03:32:09;;;;;;;27.10;20.92;;;14.60;99.90;;;;;;5052789;28;20046;-68
2022/07/12 03:34:35;;;;;;;28.02;20.63;;;14.70;99.90;;;;;;5068073;28;20795;-68
2022/07/12 03:37:01;;;;;;;31.35;23.60;;;14.60;99.90;;;;;;5050751;28;20739;-69
2022/07/12 03:39:27;;;;;;;28.35;20.92;;;14.60;99.90;;;;;;5064387;28;20051;-69
2022/07/12 03:41:53;;;;;;;27.45;19.95;;;14.60;99.90;;;;;;5057165;28;20039;-67
2022/07/12 03:44:18;;;;;;;26.80;21.02;;;14.70;99.90;;;;;;5055064;28;20781;-69
2022/07/12 03:46:44;;;;;;;31.52;24.00;;;14.60;99.90;;;;;;5064745;28;20040;-69
2022/07/12 03:49:09;;;;;;;28.42;22.90;;;14.60;99.90;;;;;;5060839;28;20546;-68
2022/07/12 03:51:35;;;;;;;30.13;21.88;;;14.60;99.90;;;;;;5064907;28;20048;-67
2022/07/12 03:54:01;;;;;;;32.10;24.15;;;14.60;99.90;;;;;;5066387;28;20036;-68
2022/07/12 03:59:11;;;;;;;30.80;22.52;;;14.70;99.90;;;;;;5062112;28;20043;-68
2022/07/12 04:01:37;;;;;;;31.52;21.63;;;14.70;99.90;;;;;;5060164;28;20056;-68
2022/07/12 04:04:02;;;;;;;25.80;20.95;;;14.70;99.90;;;;;;5063178;28;20056;-68
2022/07/12 04:06:28;;;;;;;28.73;21.17;;;14.60;99.90;;;;;;5062622;28;20048;-67
2022/07/12 04:08:54;;;;;;;29.70;21.63;;;14.70;99.90;;;;;;5051109;28;20583;-68
2022/07/12 04:11:20;;;;;;;28.40;21.25;;;14.70;99.90;;;;;;5051720;28;20051;-68
2022/07/12 04:13:46;;;;;;;27.80;21.15;;;14.70;99.90;;;;;;5067843;28;20491;-69
2022/07/12 04:16:12;;;;;;;27.80;21.65;;;14.70;99.90;;;;;;5066305;28;20554;-67
2022/07/12 04:18:38;;;;;;;25.13;19.45;;;14.70;99.90;;;;;;5054700;28;20047;-67
2022/07/12 04:21:04;;;;;;;22.67;19.27;;;14.70;99.90;;;;;;5070577;28;20498;-67
2022/07/12 04:23:29;;;;;;;28.65;20.42;;;14.70;99.90;;;;;;5062898;28;20058;-67
2022/07/12 04:25:55;;;;;;;19.48;16.15;;;14.80;99.90;;;;;;5049476;28;20437;-67
2022/07/12 04:28:21;;;;;;;17.38;15.32;;;14.70;99.90;;;;;;5061689;28;20044;-68
2022/07/12 04:30:48;;;;;;;19.73;15.32;;;14.80;99.90;;;;;;5050009;28;20050;-67
2022/07/12 04:33:14;;;;;;;19.23;16.15;;;14.80;99.90;;;;;;5050824;28;20036;-67
2022/07/12 04:35:40;;;;;;;17.40;14.30;;;14.80;99.90;;;;;;5063424;28;20037;-69
2022/07/12 04:38:07;;;;;;;23.65;17.15;;;14.70;99.90;;;;;;5057455;28;20067;-69
2022/07/12 04:40:33;;;;;;;18.50;15.88;;;14.80;99.90;;;;;;5049371;28;20072;-67
2022/07/12 04:42:59;;;;;;;18.23;15.15;;;14.80;99.90;;;;;;5062597;28;20118;-68
2022/07/12 04:45:25;;;;;;;16.15;13.43;;;14.90;99.90;;;;;;5067043;28;20036;-67
2022/07/12 04:47:50;;;;;;;17.13;14.43;;;14.90;99.90;;;;;;5055749;28;20426;-68
2022/07/12 04:50:16;;;;;;;13.50;12.05;;;14.90;99.90;;;;;;5049915;28;20036;-68
2022/07/12 04:52:42;;;;;;;14.75;12.85;;;14.90;99.90;;;;;;5066633;28;20075;-68
2022/07/12 04:55:08;;;;;;;17.33;14.77;;;14.90;99.90;;;;;;5059714;28;20048;-68
2022/07/12 04:57:34;;;;;;;16.88;14.57;;;14.90;99.90;;;;;;5053734;28;20642;-69
2022/07/12 05:00:00;;;;;;;18.33;14.80;;;15.00;99.90;;;;;;5053214;28;20071;-70
2022/07/12 05:02:26;;;;;;;14.90;12.82;;;14.90;99.90;;;;;;5054326;28;20058;-67
2022/07/12 05:04:52;;;;;;;21.55;15.95;;;14.90;99.90;;;;;;5057060;28;20767;-68
2022/07/12 05:07:17;;;;;;;13.05;11.73;;;14.90;99.90;;;;;;5064953;28;20055;-67
2022/07/12 05:09:43;;;;;;;18.58;15.00;;;15.00;99.90;;;;;;5056024;28;20526;-69
2022/07/12 05:12:09;;;;;;;14.85;13.35;;;15.10;99.90;;;;;;5056126;28;20032;-67
2022/07/12 05:14:34;;;;;;;19.80;15.20;;;15.00;99.90;;;;;;5064118;28;20639;-69
2022/07/12 05:17:00;;;;;;;16.98;14.23;;;15.10;99.90;;;;;;5056324;28;20777;-67
2022/07/12 05:19:26;;;;;;;20.80;15.85;;;15.10;99.90;;;;;;5053947;28;20709;-68
2022/07/12 05:21:51;;;;;;;19.60;15.80;;;15.00;99.90;;;;;;5056916;28;20748;-67
2022/07/12 05:24:17;;;;;;;17.65;13.50;;;15.00;99.90;;;;;;5050984;28;20052;-67
2022/07/12 05:26:43;;;;;;;15.85;13.48;;;15.10;99.90;;;;;;5056540;28;20519;-68
2022/07/12 05:29:08;;;;;;;17.30;13.63;;;15.00;99.90;;;;;;5052371;28;20048;-69
2022/07/12 05:31:35;;;;;;;15.95;14.23;;;15.10;99.90;;;;;;5054982;28;20044;-68
2022/07/12 05:34:01;;;;;;;18.63;13.82;;;15.10;99.90;;;;;;5068381;28;20119;-67
2022/07/12 05:36:27;;;;;;;21.23;15.00;;;15.10;99.90;;;;;;5050254;28;20055;-69
2022/07/12 05:38:53;;;;;;;20.70;15.15;;;15.10;99.90;;;;;;5052180;28;20037;-68
2022/07/12 05:41:18;;;;;;;22.40;16.95;;;15.20;99.90;;;;;;5050852;28;20291;-67
2022/07/12 05:43:44;;;;;;;22.88;16.25;;;15.20;99.90;;;;;;5053213;28;20174;-67
2022/07/12 05:46:10;;;;;;;25.23;14.68;;;15.20;99.90;;;;;;5052531;28;20032;-67
2022/07/12 05:48:37;;;;;;;14.57;12.95;;;15.20;99.90;;;;;;5053762;28;20048;-68
2022/07/12 05:53:47;;;;;;;13.95;11.40;;;15.30;99.90;;;;;;5051289;28;20080;-68
2022/07/12 05:56:13;;;;;;;19.75;13.73;;;15.40;99.90;;;;;;5053896;28;20433;-67
2022/07/12 05:58:39;;;;;;;13.27;11.98;;;15.40;99.90;;;;;;5052567;28;20106;-67
2022/07/12 06:01:05;;;;;;;16.85;13.48;;;15.60;99.90;;;;;;5054343;28;20777;-67
2022/07/12 06:03:31;;;;;;;18.08;14.98;;;15.60;99.90;;;;;;5051170;28;20502;-67
2022/07/12 06:05:57;;;;;;;15.48;12.75;;;15.60;99.90;;;;;;5052649;28;20052;-68
2022/07/12 06:08:23;;;;;;;16.65;14.60;;;15.70;99.90;;;;;;5053227;28;20036;-67
2022/07/12 06:10:48;;;;;;;14.77;13.27;;;15.70;99.90;;;;;;5053925;28;20218;-66
2022/07/12 06:13:14;;;;;;;13.52;11.40;;;15.70;99.90;;;;;;5054204;28;20037;-68
2022/07/12 06:15:40;;;;;;;12.43;11.30;;;15.70;99.90;;;;;;5068672;28;20851;-66
2022/07/12 06:18:06;;;;;;;18.27;12.60;;;15.80;99.90;;;;;;5067770;28;20056;-67
2022/07/12 06:20:32;;;;;;;11.60;10.40;;;15.90;99.90;;;;;;5052869;28;20059;-67
2022/07/12 06:22:57;;;;;;;18.88;15.25;;;15.90;99.90;;;;;;5051277;28;20044;-67
2022/07/12 06:25:23;;;;;;;16.50;13.68;;;15.90;99.90;;;;;;5052871;28;20037;-68
2022/07/12 06:27:49;;;;;;;20.85;13.70;;;15.90;99.90;;;;;;5055360;28;20363;-69
2022/07/12 06:30:17;;;;;;;13.85;12.45;;;16.00;99.90;;;;;;5049417;28;20037;-68
2022/07/12 06:32:45;;;;;;;12.98;10.40;;;16.00;99.90;;;;;;5051312;28;20071;-67
2022/07/12 06:35:10;;;;;;;11.00;9.88;;;16.10;99.90;;;;;;5054067;28;20041;-67
2022/07/12 06:37:36;;;;;;;11.15;9.90;;;16.20;99.90;;;;;;5054469;28;20044;-69
2022/07/12 06:40:02;;;;;;;10.18;9.18;;;16.20;99.90;;;;;;5054442;28;20727;-68
2022/07/12 06:42:28;;;;;;;10.15;9.20;;;16.30;99.90;;;;;;5053701;28;20691;-69
2022/07/12 06:44:54;;;;;;;9.63;8.73;;;16.30;99.90;;;;;;5054261;28;20086;-68
2022/07/12 06:47:21;;;;;;;10.43;9.43;;;16.40;99.90;;;;;;5053774;28;20045;-69
2022/07/12 06:49:47;;;;;;;9.45;8.65;;;16.40;99.90;;;;;;5051245;28;20048;-68
2022/07/12 06:52:12;;;;;;;8.93;8.13;;;16.50;99.90;;;;;;5056018;28;20051;-69
2022/07/12 06:54:38;;;;;;;8.25;7.45;;;16.50;99.90;;;;;;5039134;28;20113;-69
2022/07/12 06:57:04;;;;;;;7.95;7.25;;;16.60;99.90;;;;;;5057311;28;20076;-69
2022/07/12 06:59:30;;;;;;;7.13;6.43;;;16.70;99.90;;;;;;5055758;28;20040;-68
2022/07/12 07:01:57;;;;;;;6.20;5.60;;;17.00;99.90;;;;;;5053631;28;20440;-67
2022/07/12 07:04:24;;;;;;;5.88;5.35;;;17.10;99.90;;;;;;5054140;28;20098;-68
2022/07/12 07:06:49;;;;;;;8.18;7.38;;;17.20;99.90;;;;;;5054709;28;20044;-68
2022/07/12 07:09:15;;;;;;;9.02;7.18;;;17.30;99.90;;;;;;5056339;28;21687;-68
2022/07/12 07:11:41;;;;;;;8.68;7.78;;;17.30;99.90;;;;;;5053857;28;20109;-67
2022/07/12 07:14:07;;;;;;;10.23;7.68;;;17.40;99.90;;;;;;5054167;28;20040;-70
2022/07/12 07:16:33;;;;;;;8.40;7.68;;;17.80;99.90;;;;;;5051456;28;20040;-68
2022/07/12 07:18:59;;;;;;;8.10;7.30;;;18.10;99.90;;;;;;5047535;28;20298;-69
2022/07/12 07:21:25;;;;;;;7.70;7.00;;;18.20;99.90;;;;;;5052503;28;20101;-68
2022/07/12 07:23:51;;;;;;;8.07;7.25;;;18.40;99.90;;;;;;5055236;28;20048;-68
2022/07/12 07:26:17;;;;;;;6.88;6.18;;;18.40;99.90;;;;;;5036284;28;20040;-68
2022/07/12 07:31:27;;;;;;;10.40;6.60;;;18.60;99.90;;;;;;5035695;28;20780;-69
2022/07/12 07:33:53;;;;;;;16.70;7.53;;;18.50;99.90;;;;;;5054662;28;20098;-68
2022/07/12 07:36:18;;;;;;;9.02;6.70;;;18.70;99.90;;;;;;5054970;28;20043;-69
2022/07/12 07:38:44;;;;;;;8.93;6.07;;;18.80;99.90;;;;;;5057578;28;20109;-68
2022/07/12 07:41:09;;;;;;;9.15;6.55;;;18.90;99.90;;;;;;5055098;28;20055;-69
2022/07/12 07:43:35;;;;;;;10.18;6.25;;;19.10;99.90;;;;;;5057048;28;20048;-69
2022/07/12 07:46:01;;;;;;;7.55;6.80;;;19.40;99.90;;;;;;5059015;28;20043;-68
2022/07/12 07:48:28;;;;;;;7.47;6.78;;;19.50;99.90;;;;;;5057639;28;20071;-68
2022/07/12 07:50:54;;;;;;;7.18;6.47;;;19.50;99.90;;;;;;5059792;28;20056;-68
2022/07/12 07:53:19;;;;;;;7.55;6.95;;;19.80;99.90;;;;;;5057454;28;20059;-69
2022/07/12 07:55:45;;;;;;;7.25;6.60;;;20.20;99.90;;;;;;5036965;28;20048;-69
2022/07/12 07:58:11;;;;;;;6.70;6.10;;;20.40;99.90;;;;;;5055853;28;20081;-71
2022/07/12 08:00:37;;;;;;;6.25;5.65;;;20.60;99.90;;;;;;5074305;28;20051;-71
2022/07/12 08:03:03;;;;;;;6.88;6.28;;;20.80;99.90;;;;;;5054055;28;20528;-70
2022/07/12 08:05:28;;;;;;;7.28;6.68;;;21.00;99.90;;;;;;5055670;28;20123;-67
2022/07/12 08:07:54;;;;;;;6.35;5.80;;;21.10;99.90;;;;;;5054965;28;20041;-68
2022/07/12 08:10:20;;;;;;;6.70;6.07;;;21.30;99.90;;;;;;5057765;28;20145;-67
2022/07/12 08:12:45;;;;;;;5.90;5.28;;;21.40;99.90;;;;;;5034604;28;20222;-68
2022/07/12 08:15:11;;;;;;;6.22;5.72;;;21.40;99.90;;;;;;5057220;28;20439;-67
2022/07/12 08:17:37;;;;;;;5.85;5.28;;;21.50;99.90;;;;;;5054818;28;20587;-70
2022/07/12 08:20:04;;;;;;;5.50;5.00;;;21.60;99.90;;;;;;5058199;28;20043;-69
2022/07/12 08:22:30;;;;;;;8.25;5.18;;;21.70;99.90;;;;;;5057836;28;20070;-68
2022/07/12 08:24:55;;;;;;;5.75;5.13;;;21.70;99.90;;;;;;5055572;28;20041;-70
2022/07/12 08:27:21;;;;;;;5.70;5.20;;;22.00;99.90;;;;;;5037666;28;20056;-68
2022/07/12 08:29:47;;;;;;;5.57;5.05;;;22.10;99.90;;;;;;5055745;28;20189;-67
2022/07/12 08:32:13;;;;;;;6.00;5.15;;;22.30;99.90;;;;;;5036642;28;20040;-67
2022/07/12 08:34:38;;;;;;;5.53;5.05;;;22.30;99.90;;;;;;5071041;28;20048;-68
2022/07/12 08:37:05;;;;;;;7.05;4.68;;;22.60;99.90;;;;;;5055909;28;20078;-70
2022/07/12 08:39:30;;;;;;;6.30;5.45;;;22.70;99.90;;;;;;5055459;28;20531;-68
2022/07/12 08:41:56;;;;;;;6.65;5.40;;;22.50;99.90;;;;;;5055520;28;20032;-68
2022/07/12 08:44:22;;;;;;;5.90;5.45;;;22.50;99.90;;;;;;5054235;28;20536;-70
2022/07/12 08:46:47;;;;;;;5.32;4.93;;;22.40;99.90;;;;;;5055121;28;20885;-69
2022/07/12 08:49:13;;;;;;;6.80;6.30;;;22.20;99.90;;;;;;5040222;28;20044;-70
2022/07/12 08:51:39;;;;;;;6.07;5.57;;;22.20;99.90;;;;;;5036948;28;20120;-68
2022/07/12 08:54:06;;;;;;;5.32;4.82;;;22.20;99.90;;;;;;5053748;28;20464;-67
2022/07/12 08:56:37;;;;;;;6.55;5.70;;;22.70;99.90;;;;;;5053018;28;20077;-68
2022/07/12 08:59:20;;;;;;;5.90;4.82;;;22.90;99.90;;;;;;5037346;28;20492;-69
2022/07/12 09:01:51;;;;;;;5.47;5.07;;;23.30;99.90;;;;;;5053947;28;20070;-71
2022/07/12 09:04:25;;;;;;;5.85;5.35;;;23.70;99.90;;;;;;5051483;28;20435;-69
2022/07/12 09:06:51;;;;;;;4.80;4.40;;;23.60;99.90;;;;;;5037062;28;20040;-68
2022/07/12 09:09:29;;;;;;;5.13;4.68;;;23.70;99.90;;;;;;5055731;28;20059;-68
2022/07/12 09:11:55;;;;;;;5.25;4.75;;;23.80;99.90;;;;;;5056526;28;20078;-70
2022/07/12 09:14:21;;;;;;;7.13;5.60;;;23.90;99.90;;;;;;5054857;28;20350;-70
2022/07/12 09:17:12;;;;;;;4.93;4.43;;;24.10;99.90;;;;;;5029428;28;20123;-68
2022/07/12 09:19:38;;;;;;;4.93;4.53;;;24.00;99.90;;;;;;5053724;28;20268;-68
2022/07/12 09:22:13;;;;;;;4.35;3.90;;;23.90;99.90;;;;;;5054911;28;20753;-70
2022/07/12 09:24:38;;;;;;;8.95;3.90;;;23.80;99.90;;;;;;5055424;28;20037;-68
2022/07/12 09:27:05;;;;;;;4.70;4.00;;;23.90;99.90;;;;;;5052090;28;20689;-73
2022/07/12 09:29:33;;;;;;;4.20;3.83;;;23.80;99.90;;;;;;5055569;28;20050;-67
2022/07/12 09:37:41;;;;;;;5.63;3.20;;;24.00;99.90;;;;;;5055235;28;20040;-68
2022/07/12 09:40:09;;;;;;;4.82;3.30;;;24.20;99.90;;;;;;5037270;28;20048;-68
2022/07/12 09:42:35;;;;;;;3.25;2.90;;;24.30;99.90;;;;;;5057751;28;20060;-68
2022/07/12 09:45:01;;;;;;;3.60;3.30;;;24.30;99.90;;;;;;5051521;28;20416;-68
2022/07/12 09:47:27;;;;;;;4.28;2.90;;;24.20;99.90;;;;;;5036006;28;20105;-68
2022/07/12 09:49:56;;;;;;;3.10;2.90;;;24.30;99.90;;;;;;5052248;28;20677;-68
2022/07/12 09:52:25;;;;;;;5.03;3.10;;;24.20;99.90;;;;;;5070475;28;20044;-69
2022/07/12 09:54:52;;;;;;;2.78;2.50;;;24.10;99.90;;;;;;5056338;28;20028;-67
2022/07/12 09:57:31;;;;;;;2.88;2.67;;;24.20;99.90;;;;;;5054305;28;20040;-68
2022/07/12 10:00:02;;;;;;;3.58;2.70;;;24.40;99.90;;;;;;5034106;28;20121;-70
2022/07/12 10:02:28;;;;;;;4.55;2.63;;;24.40;99.90;;;;;;5057555;28;22388;-69
2022/07/12 10:04:54;;;;;;;2.30;2.10;;;24.60;99.90;;;;;;5038858;28;20150;-70
2022/07/12 10:07:20;;;;;;;3.50;2.65;;;24.70;99.90;;;;;;5057213;28;20056;-68
2022/07/12 10:09:53;;;;;;;2.60;2.40;;;25.00;99.90;;;;;;5054527;28;20902;-68
2022/07/12 10:12:21;;;;;;;1.60;1.50;;;25.30;99.90;;;;;;5038214;28;20051;-68
2022/07/12 10:14:52;;;;;;;3.28;1.90;;;25.70;99.90;;;;;;5061116;28;20430;-69
2022/07/12 10:17:22;;;;;;;2.42;2.17;;;25.90;99.90;;;;;;5058632;28;20557;-70
2022/07/12 10:19:48;;;;;;;2.15;1.60;;;25.70;99.90;;;;;;5058523;28;20048;-70
2022/07/12 10:22:21;;;;;;;2.33;1.98;;;25.80;99.90;;;;;;5056501;28;20043;-68
2022/07/12 10:24:54;;;;;;;1.73;1.33;;;25.80;99.90;;;;;;5061156;28;20047;-67
2022/07/12 10:27:20;;;;;;;2.35;1.55;;;25.70;99.90;;;;;;5062513;28;20566;-67
2022/07/12 10:29:53;;;;;;;1.75;1.30;;;25.60;99.90;;;;;;5062913;28;20127;-67
2022/07/12 10:32:24;;;;;;;2.55;1.65;;;25.60;99.90;;;;;;5058587;28;20049;-69
2022/07/12 10:35:20;;;;;;;1.48;1.00;;;25.50;99.90;;;;;;5059858;28;20046;-69
2022/07/12 10:38:19;;;;;;;2.70;1.05;;;25.60;99.90;;;;;;5061304;28;20088;-69
2022/07/12 10:40:48;;;;;;;3.53;1.10;;;25.60;99.90;;;;;;5030488;28;20441;-68
2022/07/12 10:43:19;;;;;;;1.55;0.82;;;25.90;99.90;;;;;;5062865;28;20060;-69
2022/07/12 10:45:47;;;;;;;1.10;0.68;;;26.10;99.90;;;;;;5060651;28;20060;-69
2022/07/12 10:48:12;;;;;;;2.97;0.68;;;26.20;99.90;;;;;;5040904;28;20052;-70
2022/07/12 10:50:41;;;;;;;2.85;0.60;;;26.10;99.90;;;;;;5055895;28;20309;-69
2022/07/12 10:53:19;;;;;;;2.13;0.50;;;26.10;99.90;;;;;;5041698;28;20048;-69
2022/07/12 10:56:06;;;;;;;1.58;0.45;;;26.40;99.90;;;;;;5061459;28;20071;-70
2022/07/12 10:58:34;;;;;;;2.00;0.70;;;26.30;99.90;;;;;;5058405;28;20036;-68
2022/07/12 11:01:12;;;;;;;1.48;0.70;;;26.60;99.90;;;;;;5057406;28;20063;-71
2022/07/12 11:03:41;;;;;;;9.13;0.70;;;26.50;99.90;;;;;;5058482;28;20666;-68
2022/07/12 11:06:09;;;;;;;1.77;0.57;;;26.40;99.90;;;;;;5056688;28;20087;-69
2022/07/12 11:09:02;;;;;;;1.08;0.40;;;26.20;99.90;;;;;;5036183;28;20109;-69
2022/07/12 11:11:32;;;;;;;1.77;0.50;;;26.00;99.90;;;;;;5059684;28;20049;-70
2022/07/12 11:13:59;;;;;;;1.13;0.40;;;26.10;99.90;;;;;;5056445;28;20146;-69
2022/07/12 11:16:26;;;;;;;0.68;0.30;;;26.20;99.90;;;;;;5057026;28;20078;-68
2022/07/12 11:18:52;;;;;;;1.17;0.50;;;26.40;99.90;;;;;;5058135;28;20048;-69
2022/07/12 11:21:19;;;;;;;1.05;0.50;;;26.40;99.90;;;;;;5053706;28;20936;-67
2022/07/12 11:23:45;;;;;;;2.92;0.43;;;26.30;99.90;;;;;;5053984;28;20364;-68
2022/07/12 11:26:12;;;;;;;2.58;0.40;;;26.40;99.90;;;;;;5059247;28;20109;-69
2022/07/12 11:28:39;;;;;;;0.50;0.20;;;26.30;99.90;;;;;;5058483;28;20059;-69
2022/07/12 11:31:12;;;;;;;0.82;0.30;;;26.50;99.90;;;;;;5056928;28;20131;-68
2022/07/12 11:33:43;;;;;;;1.00;0.30;;;26.40;99.90;;;;;;5057087;28;20032;-68
2022/07/12 11:36:10;;;;;;;1.55;0.30;;;26.60;99.90;;;;;;5056631;28;20086;-69
2022/07/12 11:38:37;;;;;;;1.35;0.30;;;26.20;99.90;;;;;;5056837;28;20044;-68
2022/07/12 11:41:05;;;;;;;2.20;0.38;;;25.90;99.90;;;;;;5054909;28;20063;-67
2022/07/12 11:43:32;;;;;;;1.80;0.30;;;26.00;99.90;;;;;;5054686;28;20052;-68
2022/07/12 11:45:59;;;;;;;1.05;0.40;;;26.20;99.90;;;;;;5056966;28;20036;-68
2022/07/12 11:48:25;;;;;;;2.25;0.30;;;26.20;99.90;;;;;;5056483;28;20399;-68
2022/07/12 11:50:52;;;;;;;1.83;0.30;;;26.20;99.90;;;;;;5053300;28;20454;-69
2022/07/12 11:53:23;;;;;;;0.50;0.20;;;26.10;99.90;;;;;;5055702;28;20051;-68
2022/07/12 11:55:51;;;;;;;3.00;0.20;;;26.10;99.90;;;;;;5054785;28;20040;-68
2022/07/12 11:58:18;;;;;;;1.63;0.30;;;26.40;99.90;;;;;;5055328;28;20075;-70
2022/07/12 12:00:47;;;;;;;0.68;0.10;;;26.60;99.90;;;;;;5055861;28;20380;-70
2022/07/12 12:03:16;;;;;;;0.43;0.10;;;26.60;99.90;;;;;;5056313;28;20051;-69
2022/07/12 12:05:42;;;;;;;1.15;0.10;;;26.80;99.90;;;;;;5056507;28;20681;-69
2022/07/12 12:08:10;;;;;;;0.40;0.10;;;27.10;99.90;;;;;;5054638;28;20059;-68
2022/07/12 12:10:35;;;;;;;0.50;0.10;;;27.00;99.90;;;;;;5055135;28;20926;-68
2022/07/12 12:13:02;;;;;;;1.08;0.20;;;27.10;99.90;;;;;;5053136;28;20052;-70
2022/07/12 12:15:33;;;;;;;0.57;0.10;;;27.10;99.90;;;;;;5056151;28;20021;-68
2022/07/12 12:18:06;;;;;;;1.05;0.10;;;27.10;99.90;;;;;;5056329;28;20802;-69
2022/07/12 12:20:41;;;;;;;0.77;0.10;;;27.10;99.90;;;;;;5054723;28;20072;-67
2022/07/12 12:23:17;;;;;;;0.73;0.20;;;27.30;99.90;;;;;;5056398;28;20044;-68
2022/07/12 12:25:43;;;;;;;1.38;0.20;;;27.20;99.90;;;;;;5055778;28;20051;-71
2022/07/12 12:28:08;;;;;;;1.58;0.10;;;27.30;99.90;;;;;;5053614;28;20048;-69
2022/07/12 12:30:47;;;;;;;0.65;0.20;;;27.50;99.90;;;;;;5058147;28;20063;-70
2022/07/12 12:33:13;;;;;;;0.70;0.20;;;27.90;99.90;;;;;;5059186;28;20131;-70
2022/07/12 12:35:39;;;;;;;0.50;0.20;;;28.10;99.90;;;;;;5069570;28;20617;-69
2022/07/12 12:38:13;;;;;;;1.38;0.10;;;28.40;99.90;;;;;;5058974;28;20137;-68
2022/07/12 12:40:39;;;;;;;1.02;0.20;;;28.50;99.90;;;;;;5055058;28;20044;-68
2022/07/12 12:43:07;;;;;;;0.80;0.20;;;28.70;99.90;;;;;;5053563;28;20040;-68
2022/07/12 12:45:33;;;;;;;2.25;0.10;;;28.90;99.90;;;;;;5055062;28;20118;-68
2022/07/12 12:48:08;;;;;;;1.42;0.30;;;28.90;99.90;;;;;;5052499;28;20052;-68
2022/07/12 12:50:40;;;;;;;1.13;0.20;;;28.90;99.90;;;;;;5051283;28;20048;-68